sensor_id;sensor_type;location;lat;lon;timestamp;pressure;altitude;pressure_sealevel;temperature;humidity
22241;BME280;11289;52.524;13.694;2023-07-24T00:00:45;100017.22;;;19.27;68.40
22241;BME280;11289;52.524;13.694;2023-07-24T00:03:11;99995.94;;;19.16;68.74
22241;BME280;11289;52.524;13.694;2023-07-24T00:05:37;100001.53;;;19.26;68.52
22241;BME280;11289;52.524;13.694;2023-07-24T00:08:10;100003.94;;;19.28;68.40
22241;BME280;11289;52.524;13.694;2023-07-24T00:10:35;99997.91;;;19.33;68.23
22241;BME280;11289;52.524;13.694;2023-07-24T00:13:01;100001.50;;;19.30;68.57
22241;BME280;11289;52.524;13.694;2023-07-24T00:15:28;100003.13;;;19.35;67.90
22241;BME280;11289;52.524;13.694;2023-07-24T00:17:54;99990.63;;;19.36;68.37
22241;BME280;11289;52.524;13.694;2023-07-24T00:20:20;99995.06;;;19.37;68.23
22241;BME280;11289;52.524;13.694;2023-07-24T00:22:46;99987.03;;;19.39;68.02
22241;BME280;11289;52.524;13.694;2023-07-24T00:25:12;99989.84;;;19.39;67.91
22241;BME280;11289;52.524;13.694;2023-07-24T00:27:38;99985.81;;;19.40;67.48
22241;BME280;11289;52.524;13.694;2023-07-24T00:30:05;99987.84;;;19.39;67.43
22241;BME280;11289;52.524;13.694;2023-07-24T00:32:31;99989.41;;;19.44;67.38
22241;BME280;11289;52.524;13.694;2023-07-24T00:34:57;99978.97;;;19.41;67.28
22241;BME280;11289;52.524;13.694;2023-07-24T00:37:24;99981.34;;;19.46;67.21
22241;BME280;11289;52.524;13.694;2023-07-24T00:39:50;99965.28;;;19.43;67.27
22241;BME280;11289;52.524;13.694;2023-07-24T00:42:16;99963.69;;;19.38;66.58
22241;BME280;11289;52.524;13.694;2023-07-24T00:44:41;99967.72;;;19.41;66.99
22241;BME280;11289;52.524;13.694;2023-07-24T00:47:09;99968.50;;;19.41;67.52
22241;BME280;11289;52.524;13.694;2023-07-24T00:49:35;99960.91;;;19.42;67.51
22241;BME280;11289;52.524;13.694;2023-07-24T00:52:01;99960.47;;;19.40;67.38
22241;BME280;11289;52.524;13.694;2023-07-24T00:54:30;99954.06;;;19.36;67.66
22241;BME280;11289;52.524;13.694;2023-07-24T00:56:58;99963.31;;;19.36;66.88
22241;BME280;11289;52.524;13.694;2023-07-24T00:59:24;99949.25;;;19.36;67.04
22241;BME280;11289;52.524;13.694;2023-07-24T01:01:50;99947.25;;;19.33;67.14
22241;BME280;11289;52.524;13.694;2023-07-24T01:04:17;99956.47;;;19.37;67.15
22241;BME280;11289;52.524;13.694;2023-07-24T01:06:44;99948.03;;;19.34;67.33
22241;BME280;11289;52.524;13.694;2023-07-24T01:09:10;99952.47;;;19.35;67.27
22241;BME280;11289;52.524;13.694;2023-07-24T01:11:41;99945.22;;;19.34;67.79
22241;BME280;11289;52.524;13.694;2023-07-24T01:14:25;99942.81;;;19.36;67.88
22241;BME280;11289;52.524;13.694;2023-07-24T01:16:55;99932.78;;;19.27;68.05
22241;BME280;11289;52.524;13.694;2023-07-24T01:22:24;99937.59;;;19.30;68.05
22241;BME280;11289;52.524;13.694;2023-07-24T01:25:04;99928.38;;;19.26;68.47
22241;BME280;11289;52.524;13.694;2023-07-24T01:27:31;99937.22;;;19.21;68.35
22241;BME280;11289;52.524;13.694;2023-07-24T01:29:56;99935.63;;;19.20;68.21
22241;BME280;11289;52.524;13.694;2023-07-24T01:32:23;99921.59;;;19.13;68.72
22241;BME280;11289;52.524;13.694;2023-07-24T01:34:50;99923.19;;;19.14;68.93
22241;BME280;11289;52.524;13.694;2023-07-24T01:37:17;99921.59;;;19.09;68.94
22241;BME280;11289;52.524;13.694;2023-07-24T01:39:45;99922.81;;;19.05;68.94
22241;BME280;11289;52.524;13.694;2023-07-24T01:42:11;99913.56;;;19.01;69.32
22241;BME280;11289;52.524;13.694;2023-07-24T01:44:38;99916.38;;;19.01;68.93
22241;BME280;11289;52.524;13.694;2023-07-24T01:47:04;99914.78;;;19.00;69.25
22241;BME280;11289;52.524;13.694;2023-07-24T01:49:30;99922.00;;;19.01;69.17
22241;BME280;11289;52.524;13.694;2023-07-24T01:51:57;99904.75;;;18.91;69.00
22241;BME280;11289;52.524;13.694;2023-07-24T01:54:23;99903.56;;;18.92;69.13
22241;BME280;11289;52.524;13.694;2023-07-24T01:56:49;99918.78;;;19.02;69.24
22241;BME280;11289;52.524;13.694;2023-07-24T01:59:15;99921.59;;;19.02;69.07
22241;BME280;11289;52.524;13.694;2023-07-24T02:01:41;99907.97;;;18.97;69.14
22241;BME280;11289;52.524;13.694;2023-07-24T02:04:07;99910.75;;;19.01;68.95
22241;BME280;11289;52.524;13.694;2023-07-24T02:06:33;99909.59;;;18.98;68.83
22241;BME280;11289;52.524;13.694;2023-07-24T02:08:59;99913.97;;;18.99;68.59
22241;BME280;11289;52.524;13.694;2023-07-24T02:11:25;99888.28;;;18.86;68.51
22241;BME280;11289;52.524;13.694;2023-07-24T02:13:51;99907.16;;;18.96;68.19
22241;BME280;11289;52.524;13.694;2023-07-24T02:16:17;99901.13;;;18.94;67.80
22241;BME280;11289;52.524;13.694;2023-07-24T02:18:43;99909.16;;;19.00;67.35
22241;BME280;11289;52.524;13.694;2023-07-24T02:21:09;99900.34;;;18.94;67.03
22241;BME280;11289;52.524;13.694;2023-07-24T02:23:35;99904.75;;;18.99;67.18
22241;BME280;11289;52.524;13.694;2023-07-24T02:26:02;99895.50;;;18.94;66.68
22241;BME280;11289;52.524;13.694;2023-07-24T02:28:28;99884.28;;;18.87;66.51
22241;BME280;11289;52.524;13.694;2023-07-24T02:30:53;99903.97;;;18.98;66.47
22241;BME280;11289;52.524;13.694;2023-07-24T02:33:23;99895.91;;;18.96;66.04
22241;BME280;11289;52.524;13.694;2023-07-24T02:35:51;99895.91;;;18.96;66.10
22241;BME280;11289;52.524;13.694;2023-07-24T02:38:19;99885.88;;;18.95;65.84
22241;BME280;11289;52.524;13.694;2023-07-24T02:40:45;99873.03;;;18.87;65.87
22241;BME280;11289;52.524;13.694;2023-07-24T02:43:18;99901.13;;;19.02;65.84
22241;BME280;11289;52.524;13.694;2023-07-24T02:45:44;99897.50;;;19.01;66.01
22241;BME280;11289;52.524;13.694;2023-07-24T02:48:10;99889.06;;;18.98;65.81
22241;BME280;11289;52.524;13.694;2023-07-24T02:50:36;99895.09;;;19.03;65.69
22241;BME280;11289;52.524;13.694;2023-07-24T02:53:02;99895.50;;;19.02;66.01
22241;BME280;11289;52.524;13.694;2023-07-24T02:55:31;99888.28;;;18.93;65.98
22241;BME280;11289;52.524;13.694;2023-07-24T02:57:58;99905.94;;;19.05;66.26
22241;BME280;11289;52.524;13.694;2023-07-24T03:00:27;99901.53;;;19.00;66.32
22241;BME280;11289;52.524;13.694;2023-07-24T03:02:54;99913.16;;;19.02;66.35
22241;BME280;11289;52.524;13.694;2023-07-24T03:05:20;99914.38;;;19.08;66.59
22241;BME280;11289;52.524;13.694;2023-07-24T03:07:46;99913.97;;;19.03;66.48
22241;BME280;11289;52.524;13.694;2023-07-24T03:10:12;99926.00;;;19.10;66.61
22241;BME280;11289;52.524;13.694;2023-07-24T03:12:38;99920.00;;;19.08;66.50
22241;BME280;11289;52.524;13.694;2023-07-24T03:15:05;99923.19;;;19.10;66.79
22241;BME280;11289;52.524;13.694;2023-07-24T03:17:31;99909.16;;;19.07;66.48
22241;BME280;11289;52.524;13.694;2023-07-24T03:19:57;99921.97;;;19.15;66.73
22241;BME280;11289;52.524;13.694;2023-07-24T03:22:23;99924.78;;;19.15;66.84
22241;BME280;11289;52.524;13.694;2023-07-24T03:24:49;99926.00;;;19.14;67.04
22241;BME280;11289;52.524;13.694;2023-07-24T03:27:15;99918.78;;;19.13;67.15
22241;BME280;11289;52.524;13.694;2023-07-24T03:29:41;99921.97;;;19.15;67.39
22241;BME280;11289;52.524;13.694;2023-07-24T03:32:07;99930.78;;;19.21;67.78
22241;BME280;11289;52.524;13.694;2023-07-24T03:34:33;99925.59;;;19.19;68.09
22241;BME280;11289;52.524;13.694;2023-07-24T03:36:59;99913.13;;;19.17;68.13
22241;BME280;11289;52.524;13.694;2023-07-24T03:39:25;99922.75;;;19.19;68.37
22241;BME280;11289;52.524;13.694;2023-07-24T03:41:51;99926.38;;;19.20;68.50
22241;BME280;11289;52.524;13.694;2023-07-24T03:44:17;99921.19;;;19.14;68.83
22241;BME280;11289;52.524;13.694;2023-07-24T03:46:43;99925.19;;;19.17;69.08
22241;BME280;11289;52.524;13.694;2023-07-24T03:49:09;99927.97;;;19.21;69.23
22241;BME280;11289;52.524;13.694;2023-07-24T03:51:35;99922.75;;;19.19;69.17
22241;BME280;11289;52.524;13.694;2023-07-24T03:54:01;99918.34;;;19.18;69.26
22241;BME280;11289;52.524;13.694;2023-07-24T03:56:27;99921.56;;;19.20;69.21
22241;BME280;11289;52.524;13.694;2023-07-24T03:58:52;99928.41;;;19.23;69.26
22241;BME280;11289;52.524;13.694;2023-07-24T04:01:19;99919.94;;;19.26;69.53
22241;BME280;11289;52.524;13.694;2023-07-24T04:03:45;99927.97;;;19.28;69.38
22241;BME280;11289;52.524;13.694;2023-07-24T04:06:11;99927.56;;;19.29;69.60
22241;BME280;11289;52.524;13.694;2023-07-24T04:08:37;99933.19;;;19.33;69.44
22241;BME280;11289;52.524;13.694;2023-07-24T04:11:03;99926.72;;;19.33;69.42
22241;BME280;11289;52.524;13.694;2023-07-24T04:13:30;99923.09;;;19.36;69.84
22241;BME280;11289;52.524;13.694;2023-07-24T04:15:56;99916.69;;;19.39;69.74
22241;BME280;11289;52.524;13.694;2023-07-24T04:18:23;99935.56;;;19.42;69.87
22241;BME280;11289;52.524;13.694;2023-07-24T04:20:49;99934.75;;;19.45;71.58
22241;BME280;11289;52.524;13.694;2023-07-24T04:23:18;99931.53;;;19.43;72.29
22241;BME280;11289;52.524;13.694;2023-07-24T04:25:44;99932.38;;;19.36;73.09
22241;BME280;11289;52.524;13.694;2023-07-24T04:28:09;99929.97;;;19.35;73.89
22241;BME280;11289;52.524;13.694;2023-07-24T04:30:35;99917.50;;;19.28;74.14
22241;BME280;11289;52.524;13.694;2023-07-24T04:33:01;99936.38;;;19.35;74.48
22241;BME280;11289;52.524;13.694;2023-07-24T04:35:27;99923.53;;;19.30;75.03
22241;BME280;11289;52.524;13.694;2023-07-24T04:37:53;99921.94;;;19.33;75.40
22241;BME280;11289;52.524;13.694;2023-07-24T04:40:19;99926.72;;;19.33;75.51
22241;BME280;11289;52.524;13.694;2023-07-24T04:42:45;99921.09;;;19.33;75.70
22241;BME280;11289;52.524;13.694;2023-07-24T04:45:11;99927.53;;;19.37;76.18
22241;BME280;11289;52.524;13.694;2023-07-24T04:47:37;99939.56;;;19.41;75.80
22241;BME280;11289;52.524;13.694;2023-07-24T04:50:04;99910.66;;;19.40;75.91
22241;BME280;11289;52.524;13.694;2023-07-24T04:52:31;99925.06;;;19.46;76.58
22241;BME280;11289;52.524;13.694;2023-07-24T04:54:57;99923.47;;;19.48;76.57
22241;BME280;11289;52.524;13.694;2023-07-24T04:57:23;99919.03;;;19.51;76.81
22241;BME280;11289;52.524;13.694;2023-07-24T04:59:48;99915.81;;;19.53;76.74
22241;BME280;11289;52.524;13.694;2023-07-24T05:02:14;99921.81;;;19.58;76.25
22241;BME280;11289;52.524;13.694;2023-07-24T05:04:40;99908.94;;;19.61;75.97
22241;BME280;11289;52.524;13.694;2023-07-24T05:07:07;99917.75;;;19.66;76.01
22241;BME280;11289;52.524;13.694;2023-07-24T05:09:33;99906.50;;;19.66;75.27
22241;BME280;11289;52.524;13.694;2023-07-24T05:11:59;99905.63;;;19.77;76.30
22241;BME280;11289;52.524;13.694;2023-07-24T05:14:25;99914.88;;;19.85;75.97
22241;BME280;11289;52.524;13.694;2023-07-24T05:16:51;99913.63;;;19.93;75.32
22241;BME280;11289;52.524;13.694;2023-07-24T05:19:17;99909.56;;;19.97;75.31
22241;BME280;11289;52.524;13.694;2023-07-24T05:21:42;99900.28;;;20.04;75.38
22241;BME280;11289;52.524;13.694;2023-07-24T05:24:08;99901.44;;;20.10;75.48
22241;BME280;11289;52.524;13.694;2023-07-24T05:26:34;99906.19;;;20.17;74.57
22241;BME280;11289;52.524;13.694;2023-07-24T05:29:00;99895.28;;;20.23;74.24
22241;BME280;11289;52.524;13.694;2023-07-24T05:31:26;99896.09;;;20.23;74.38
22241;BME280;11289;52.524;13.694;2023-07-24T05:33:52;99893.66;;;20.25;73.70
22241;BME280;11289;52.524;13.694;2023-07-24T05:36:18;99884.38;;;20.28;74.36
22241;BME280;11289;52.524;13.694;2023-07-24T05:38:44;99872.19;;;20.39;73.18
22241;BME280;11289;52.524;13.694;2023-07-24T05:41:10;99883.34;;;20.53;72.84
22241;BME280;11289;52.524;13.694;2023-07-24T05:43:36;99896.13;;;20.68;73.20
22241;BME280;11289;52.524;13.694;2023-07-24T05:46:02;99888.81;;;20.75;72.61
22241;BME280;11289;52.524;13.694;2023-07-24T05:48:28;99895.53;;;20.88;71.29
22241;BME280;11289;52.524;13.694;2023-07-24T05:50:54;99882.19;;;20.92;70.94
22241;BME280;11289;52.524;13.694;2023-07-24T05:53:20;99868.91;;;20.93;70.57
22241;BME280;11289;52.524;13.694;2023-07-24T05:55:46;99883.75;;;20.97;70.42
22241;BME280;11289;52.524;13.694;2023-07-24T05:58:12;99881.66;;;21.04;70.52
22241;BME280;11289;52.524;13.694;2023-07-24T06:00:38;99877.84;;;21.18;70.41
22241;BME280;11289;52.524;13.694;2023-07-24T06:03:04;99872.78;;;21.37;69.31
22241;BME280;11289;52.524;13.694;2023-07-24T06:05:30;99875.41;;;21.55;68.55
22241;BME280;11289;52.524;13.694;2023-07-24T06:07:56;99864.72;;;21.70;68.03
22241;BME280;11289;52.524;13.694;2023-07-24T06:10:22;99854.44;;;21.83;67.45
22241;BME280;11289;52.524;13.694;2023-07-24T06:12:48;99854.47;;;22.07;66.16
22241;BME280;11289;52.524;13.694;2023-07-24T06:15:14;99842.44;;;22.26;65.53
22241;BME280;11289;52.524;13.694;2023-07-24T06:17:40;99844.56;;;22.46;64.57
22241;BME280;11289;52.524;13.694;2023-07-24T06:20:06;99853.00;;;22.70;63.92
22241;BME280;11289;52.524;13.694;2023-07-24T06:22:32;99847.50;;;22.83;62.15
22241;BME280;11289;52.524;13.694;2023-07-24T06:24:58;99840.25;;;23.02;61.99
22241;BME280;11289;52.524;13.694;2023-07-24T06:27:24;99847.72;;;23.16;60.71
22241;BME280;11289;52.524;13.694;2023-07-24T06:29:50;99838.34;;;23.19;59.14
22241;BME280;11289;52.524;13.694;2023-07-24T06:32:16;99838.03;;;23.33;59.79
22241;BME280;11289;52.524;13.694;2023-07-24T06:34:42;99846.06;;;23.55;59.54
22241;BME280;11289;52.524;13.694;2023-07-24T06:37:08;99827.97;;;23.69;59.22
22241;BME280;11289;52.524;13.694;2023-07-24T06:39:34;99829.44;;;23.93;58.74
22241;BME280;11289;52.524;13.694;2023-07-24T06:42:00;99828.19;;;24.11;57.37
22241;BME280;11289;52.524;13.694;2023-07-24T06:44:26;99826.31;;;24.21;56.76
22241;BME280;11289;52.524;13.694;2023-07-24T06:46:52;99821.16;;;24.32;56.23
22241;BME280;11289;52.524;13.694;2023-07-24T06:49:18;99822.91;;;24.42;55.50
22241;BME280;11289;52.524;13.694;2023-07-24T06:51:44;99821.22;;;24.61;55.40
22241;BME280;11289;52.524;13.694;2023-07-24T06:54:10;99816.06;;;24.56;53.23
22241;BME280;11289;52.524;13.694;2023-07-24T06:56:36;99821.03;;;24.68;53.57
22241;BME280;11289;52.524;13.694;2023-07-24T06:59:02;99819.84;;;24.82;53.11
22241;BME280;11289;52.524;13.694;2023-07-24T07:01:28;99811.25;;;24.99;53.33
22241;BME280;11289;52.524;13.694;2023-07-24T07:03:54;99808.91;;;25.10;52.82
22241;BME280;11289;52.524;13.694;2023-07-24T07:06:20;99812.53;;;25.11;52.51
22241;BME280;11289;52.524;13.694;2023-07-24T07:08:46;99824.16;;;25.29;52.48
22241;BME280;11289;52.524;13.694;2023-07-24T07:11:12;99814.09;;;25.41;51.32
22241;BME280;11289;52.524;13.694;2023-07-24T07:13:38;99809.56;;;25.57;51.06
22241;BME280;11289;52.524;13.694;2023-07-24T07:16:04;99819.00;;;25.66;50.40
22241;BME280;11289;52.524;13.694;2023-07-24T07:18:30;99807.75;;;25.76;50.04
22241;BME280;11289;52.524;13.694;2023-07-24T07:20:56;99797.16;;;25.89;50.52
22241;BME280;11289;52.524;13.694;2023-07-24T07:23:22;99789.31;;;26.06;49.52
22241;BME280;11289;52.524;13.694;2023-07-24T07:25:48;99780.78;;;26.19;48.92
22241;BME280;11289;52.524;13.694;2023-07-24T07:28:15;99774.22;;;26.31;48.07
22241;BME280;11289;52.524;13.694;2023-07-24T07:30:42;99784.78;;;26.44;48.12
22241;BME280;11289;52.524;13.694;2023-07-24T07:33:09;99777.56;;;26.52;47.60
22241;BME280;11289;52.524;13.694;2023-07-24T07:35:36;99770.06;;;26.58;46.99
22241;BME280;11289;52.524;13.694;2023-07-24T07:38:03;99792.78;;;26.71;46.79
22241;BME280;11289;52.524;13.694;2023-07-24T07:40:29;99788.41;;;26.79;46.39
22241;BME280;11289;52.524;13.694;2023-07-24T07:42:56;99790.16;;;26.77;46.43
22241;BME280;11289;52.524;13.694;2023-07-24T07:45:25;99788.56;;;26.75;46.89
22241;BME280;11289;52.524;13.694;2023-07-24T07:47:51;99797.97;;;26.85;45.61
22241;BME280;11289;52.524;13.694;2023-07-24T07:50:18;99806.22;;;26.92;46.26
22241;BME280;11289;52.524;13.694;2023-07-24T07:52:45;99802.47;;;26.96;45.07
22241;BME280;11289;52.524;13.694;2023-07-24T07:55:11;99809.22;;;26.89;46.25
22241;BME280;11289;52.524;13.694;2023-07-24T07:57:39;99811.31;;;26.98;45.30
22241;BME280;11289;52.524;13.694;2023-07-24T08:00:05;99818.88;;;27.14;45.98
22241;BME280;11289;52.524;13.694;2023-07-24T08:02:32;99806.53;;;27.39;44.86
22241;BME280;11289;52.524;13.694;2023-07-24T08:05:00;99800.94;;;27.57;45.94
22241;BME280;11289;52.524;13.694;2023-07-24T08:07:26;99804.63;;;27.76;44.58
22241;BME280;11289;52.524;13.694;2023-07-24T08:09:52;99817.16;;;27.79;43.94
22241;BME280;11289;52.524;13.694;2023-07-24T08:12:17;99806.22;;;27.77;44.12
22241;BME280;11289;52.524;13.694;2023-07-24T08:14:43;99802.13;;;27.78;43.80
22241;BME280;11289;52.524;13.694;2023-07-24T08:17:09;99807.38;;;27.89;43.20
22241;BME280;11289;52.524;13.694;2023-07-24T08:19:35;99802.63;;;27.86;43.05
22241;BME280;11289;52.524;13.694;2023-07-24T08:22:01;99789.53;;;27.98;43.22
22241;BME280;11289;52.524;13.694;2023-07-24T08:24:27;99778.00;;;28.20;44.29
22241;BME280;11289;52.524;13.694;2023-07-24T08:26:53;99781.19;;;28.31;42.27
22241;BME280;11289;52.524;13.694;2023-07-24T08:29:19;99794.19;;;28.23;41.37
22241;BME280;11289;52.524;13.694;2023-07-24T08:31:45;99769.78;;;28.22;42.01
22241;BME280;11289;52.524;13.694;2023-07-24T08:34:11;99774.84;;;28.37;41.40
22241;BME280;11289;52.524;13.694;2023-07-24T08:36:37;99780.25;;;28.44;41.99
22241;BME280;11289;52.524;13.694;2023-07-24T08:39:03;99769.94;;;28.37;41.61
22241;BME280;11289;52.524;13.694;2023-07-24T08:41:29;99756.44;;;28.38;41.51
22241;BME280;11289;52.524;13.694;2023-07-24T08:43:58;99756.66;;;28.62;41.50
22241;BME280;11289;52.524;13.694;2023-07-24T08:46:24;99746.00;;;28.62;41.66
22241;BME280;11289;52.524;13.694;2023-07-24T08:48:52;99749.81;;;28.50;41.97
22241;BME280;11289;52.524;13.694;2023-07-24T08:51:18;99745.34;;;28.21;42.03
22241;BME280;11289;52.524;13.694;2023-07-24T08:53:50;99753.84;;;27.93;42.28
22241;BME280;11289;52.524;13.694;2023-07-24T08:56:16;99748.22;;;27.62;43.38
22241;BME280;11289;52.524;13.694;2023-07-24T08:58:42;99734.69;;;27.35;43.54
22241;BME280;11289;52.524;13.694;2023-07-24T09:01:08;99739.00;;;27.17;44.12
22241;BME280;11289;52.524;13.694;2023-07-24T09:03:35;99745.25;;;27.03;44.61
22241;BME280;11289;52.524;13.694;2023-07-24T09:06:01;99744.38;;;26.93;45.16
22241;BME280;11289;52.524;13.694;2023-07-24T09:08:36;99741.03;;;26.85;44.92
22241;BME280;11289;52.524;13.694;2023-07-24T09:11:04;99736.91;;;26.86;45.63
22241;BME280;11289;52.524;13.694;2023-07-24T09:13:31;99731.38;;;27.14;45.63
22241;BME280;11289;52.524;13.694;2023-07-24T09:15:57;99722.66;;;27.40;44.74
22241;BME280;11289;52.524;13.694;2023-07-24T09:18:25;99723.78;;;27.52;44.59
22241;BME280;11289;52.524;13.694;2023-07-24T09:20:51;99724.59;;;27.52;44.59
22241;BME280;11289;52.524;13.694;2023-07-24T09:23:26;99718.75;;;27.56;44.03
22241;BME280;11289;52.524;13.694;2023-07-24T09:25:53;99711.63;;;27.51;44.73
22241;BME280;11289;52.524;13.694;2023-07-24T09:28:19;99709.13;;;27.72;44.81
22241;BME280;11289;52.524;13.694;2023-07-24T09:30:57;99709.94;;;27.91;44.51
22241;BME280;11289;52.524;13.694;2023-07-24T09:33:34;99712.66;;;27.94;44.25
22241;BME280;11289;52.524;13.694;2023-07-24T09:36:01;99707.22;;;27.78;44.30
22241;BME280;11289;52.524;13.694;2023-07-24T09:38:27;99715.78;;;27.69;43.89
22241;BME280;11289;52.524;13.694;2023-07-24T09:40:54;99716.66;;;27.47;44.01
22241;BME280;11289;52.524;13.694;2023-07-24T09:43:25;99715.97;;;27.34;44.51
22241;BME280;11289;52.524;13.694;2023-07-24T09:45:53;99708.63;;;27.23;44.74
22241;BME280;11289;52.524;13.694;2023-07-24T09:48:20;99711.97;;;27.31;45.08
22241;BME280;11289;52.524;13.694;2023-07-24T09:50:48;99715.59;;;27.32;44.78
22241;BME280;11289;52.524;13.694;2023-07-24T09:53:18;99720.31;;;27.16;44.81
22241;BME280;11289;52.524;13.694;2023-07-24T09:55:56;99710.50;;;27.17;44.96
22241;BME280;11289;52.524;13.694;2023-07-24T09:58:23;99712.44;;;27.30;45.42
22241;BME280;11289;52.524;13.694;2023-07-24T10:00:50;99712.97;;;27.37;45.09
22241;BME280;11289;52.524;13.694;2023-07-24T10:03:17;99710.69;;;27.63;45.48
22241;BME280;11289;52.524;13.694;2023-07-24T10:05:44;99702.16;;;27.73;44.59
22241;BME280;11289;52.524;13.694;2023-07-24T10:08:10;99693.63;;;27.82;44.30
22241;BME280;11289;52.524;13.694;2023-07-24T10:10:38;99693.84;;;28.16;42.82
22241;BME280;11289;52.524;13.694;2023-07-24T10:13:04;99689.25;;;28.55;43.26
22241;BME280;11289;52.524;13.694;2023-07-24T10:15:31;99678.75;;;28.71;41.62
22241;BME280;11289;52.524;13.694;2023-07-24T10:18:02;99675.97;;;29.04;41.58
22241;BME280;11289;52.524;13.694;2023-07-24T10:20:36;99676.19;;;29.34;40.15
22241;BME280;11289;52.524;13.694;2023-07-24T10:23:03;99669.03;;;29.63;39.63
22241;BME280;11289;52.524;13.694;2023-07-24T10:25:30;99657.81;;;29.83;39.51
22241;BME280;11289;52.524;13.694;2023-07-24T10:28:08;99661.72;;;30.10;38.44
22241;BME280;11289;52.524;13.694;2023-07-24T10:30:37;99655.56;;;30.27;38.33
22241;BME280;11289;52.524;13.694;2023-07-24T10:33:17;99655.69;;;30.62;38.05
22241;BME280;11289;52.524;13.694;2023-07-24T10:35:47;99640.09;;;30.48;36.85
22241;BME280;11289;52.524;13.694;2023-07-24T10:38:15;99644.19;;;30.32;37.26
22241;BME280;11289;52.524;13.694;2023-07-24T10:40:45;99642.91;;;30.18;37.11
22241;BME280;11289;52.524;13.694;2023-07-24T10:43:13;99630.41;;;29.92;38.23
22241;BME280;11289;52.524;13.694;2023-07-24T10:45:50;99625.31;;;29.72;39.13
22241;BME280;11289;52.524;13.694;2023-07-24T10:48:18;99628.88;;;29.81;38.95
22241;BME280;11289;52.524;13.694;2023-07-24T10:50:45;99621.94;;;29.97;38.59
22241;BME280;11289;52.524;13.694;2023-07-24T10:53:14;99614.56;;;30.06;38.51
22241;BME280;11289;52.524;13.694;2023-07-24T10:55:42;99609.84;;;30.17;36.71
22241;BME280;11289;52.524;13.694;2023-07-24T10:58:08;99601.66;;;30.25;36.29
22241;BME280;11289;52.524;13.694;2023-07-24T11:00:35;99601.16;;;30.12;36.43
22241;BME280;11289;52.524;13.694;2023-07-24T11:03:01;99604.13;;;30.17;36.71
22241;BME280;11289;52.524;13.694;2023-07-24T11:05:27;99587.31;;;29.95;36.88
22241;BME280;11289;52.524;13.694;2023-07-24T11:07:54;99582.59;;;29.92;36.75
22241;BME280;11289;52.524;13.694;2023-07-24T11:10:21;99583.06;;;29.66;36.50
22241;BME280;11289;52.524;13.694;2023-07-24T11:12:48;99583.97;;;29.73;36.67
22241;BME280;11289;52.524;13.694;2023-07-24T11:15:16;99558.13;;;29.91;36.83
22241;BME280;11289;52.524;13.694;2023-07-24T11:17:42;99556.84;;;30.22;35.63
22241;BME280;11289;52.524;13.694;2023-07-24T11:20:13;99550.75;;;30.59;36.56
22241;BME280;11289;52.524;13.694;2023-07-24T11:22:40;99539.06;;;30.78;35.25
22241;BME280;11289;52.524;13.694;2023-07-24T11:25:07;99535.56;;;31.03;35.55
22241;BME280;11289;52.524;13.694;2023-07-24T11:27:40;99522.13;;;31.30;35.58
22241;BME280;11289;52.524;13.694;2023-07-24T11:30:08;99524.13;;;31.65;34.99
22241;BME280;11289;52.524;13.694;2023-07-24T11:32:34;99528.41;;;31.75;33.50
22241;BME280;11289;52.524;13.694;2023-07-24T11:35:00;99523.88;;;31.69;33.35
22241;BME280;11289;52.524;13.694;2023-07-24T11:37:26;99515.66;;;31.76;33.22
22241;BME280;11289;52.524;13.694;2023-07-24T11:39:57;99506.03;;;31.38;33.18
22241;BME280;11289;52.524;13.694;2023-07-24T11:42:25;99512.34;;;31.01;34.17
22241;BME280;11289;52.524;13.694;2023-07-24T11:44:51;99515.50;;;31.03;34.33
22241;BME280;11289;52.524;13.694;2023-07-24T11:47:17;99512.75;;;30.94;33.78
22241;BME280;11289;52.524;13.694;2023-07-24T11:49:43;99509.41;;;30.60;34.04
22241;BME280;11289;52.524;13.694;2023-07-24T11:52:14;99499.03;;;30.33;35.07
22241;BME280;11289;52.524;13.694;2023-07-24T11:54:40;99500.63;;;30.19;35.26
22241;BME280;11289;52.524;13.694;2023-07-24T11:57:15;99502.00;;;30.53;35.30
22241;BME280;11289;52.524;13.694;2023-07-24T11:59:42;99496.09;;;31.13;34.85
22241;BME280;11289;52.524;13.694;2023-07-24T12:02:11;99495.19;;;31.63;33.56
22241;BME280;11289;52.524;13.694;2023-07-24T12:04:37;99493.34;;;32.13;32.24
22241;BME280;11289;52.524;13.694;2023-07-24T12:07:09;99488.63;;;31.89;31.88
22241;BME280;11289;52.524;13.694;2023-07-24T12:09:35;99471.31;;;31.31;32.70
22241;BME280;11289;52.524;13.694;2023-07-24T12:12:03;99481.69;;;31.07;33.61
22241;BME280;11289;52.524;13.694;2023-07-24T12:14:30;99482.34;;;30.82;33.82
22241;BME280;11289;52.524;13.694;2023-07-24T12:17:02;99489.63;;;30.62;34.27
22241;BME280;11289;52.524;13.694;2023-07-24T12:19:28;99489.84;;;30.59;34.37
22241;BME280;11289;52.524;13.694;2023-07-24T12:21:54;99486.22;;;30.28;33.32
22241;BME280;11289;52.524;13.694;2023-07-24T12:24:20;99490.16;;;30.16;34.51
22241;BME280;11289;52.524;13.694;2023-07-24T12:26:46;99492.81;;;30.04;34.71
22241;BME280;11289;52.524;13.694;2023-07-24T12:29:12;99469.09;;;29.74;34.86
22241;BME280;11289;52.524;13.694;2023-07-24T12:31:38;99473.72;;;29.57;35.49
22241;BME280;11289;52.524;13.694;2023-07-24T12:34:04;99468.84;;;29.33;35.86
22241;BME280;11289;52.524;13.694;2023-07-24T12:36:30;99486.59;;;29.13;35.40
22241;BME280;11289;52.524;13.694;2023-07-24T12:38:56;99476.44;;;28.88;35.48
22241;BME280;11289;52.524;13.694;2023-07-24T12:41:22;99481.84;;;28.61;35.36
22241;BME280;11289;52.524;13.694;2023-07-24T12:43:48;99497.06;;;28.49;36.35
22241;BME280;11289;52.524;13.694;2023-07-24T12:46:14;99502.19;;;28.36;36.18
22241;BME280;11289;52.524;13.694;2023-07-24T12:48:40;99529.47;;;28.27;37.02
22241;BME280;11289;52.524;13.694;2023-07-24T12:51:06;99533.63;;;28.17;38.09